Mission

  • Our mission is to promote and protect San Carlos Airport and its flight operations, and to enhance the safety and spirit of general aviation through participation in local community activities.

Background

  • The San Carlos Airport Association (SCAA) has represented pilots and friends of the Airport since our founding in 1986.

Noise Abatement Procedures

  • San Carlos Airport is surrounded by noise sensitive neighborhoods. All pilots are encouraged to follow the noise abatement procedures

Live View of San Carlos Airport (SQL)

San Carlos METAR

  • KSQL 140615Z AUTO 00000KT 10SM CLR 08/02 A3008 RMK AO2

    A METAR describes the current weather at an airport. Click here to learn how to read a METAR.


SQL Notams

  • Click here and enter KSQL in the Locations box to read the Notices to Airmen (Notams) about San Carlos Airport.

ASOS from Half Moon Bay Airport (HAF)

Chapter

Contact

  • Email: webmaster at sancarlosairport.org
  • twitter
  • Our mailing address:
    San Carlos Airport Association
    P.O. Box 1183
    San Carlos, CA 94070
 

Biplane Rides at Airport Day Sat. 9/30/17


from the Airport’s facebook page

This Airport Day, be sure to take an unforgettable ride on “Stanley” a New Standard biplane. Stanley is one of five New Standards flying in the world today. Don’t miss this rare opportunity to experience a ride with Nostalgic Warbird & Biplane Rides! September 30th 10 AM to 3 PM!